sensor_id;sensor_type;location;lat;lon;timestamp;pressure;altitude;pressure_sealevel;temperature;humidity
46886;BME280;32622;48.202;11.326;2022-08-14T00:00:30;1014.47;;;19.43;22.67
46886;BME280;32622;48.202;11.326;2022-08-14T00:02:33;1014.39;;;19.90;22.86
46886;BME280;32622;48.202;11.326;2022-08-14T00:04:36;1014.54;;;19.38;23.90
46886;BME280;32622;48.202;11.326;2022-08-14T00:06:39;1014.55;;;19.05;24.26
46886;BME280;32622;48.202;11.326;2022-08-14T00:08:42;1014.56;;;18.77;23.98
46886;BME280;32622;48.202;11.326;2022-08-14T00:10:46;1014.43;;;19.44;23.78
46886;BME280;32622;48.202;11.326;2022-08-14T00:12:51;1014.44;;;19.34;23.81
46886;BME280;32622;48.202;11.326;2022-08-14T00:14:54;1014.41;;;19.36;23.83
46886;BME280;32622;48.202;11.326;2022-08-14T00:16:57;1014.41;;;19.21;23.61
46886;BME280;32622;48.202;11.326;2022-08-14T00:19:01;1014.34;;;19.43;23.68
46886;BME280;32622;48.202;11.326;2022-08-14T00:21:08;1014.29;;;19.53;23.23
46886;BME280;32622;48.202;11.326;2022-08-14T00:23:13;1014.39;;;19.06;24.21
46886;BME280;32622;48.202;11.326;2022-08-14T00:25:17;1014.61;;;17.81;25.20
46886;BME280;32622;48.202;11.326;2022-08-14T00:27:20;1014.56;;;17.94;25.22
46886;BME280;32622;48.202;11.326;2022-08-14T00:29:23;1014.40;;;18.57;24.29
46886;BME280;32622;48.202;11.326;2022-08-14T00:31:26;1014.26;;;19.18;23.75
46886;BME280;32622;48.202;11.326;2022-08-14T00:33:29;1014.21;;;19.20;23.37
46886;BME280;32622;48.202;11.326;2022-08-14T00:35:33;1014.19;;;19.33;23.53
46886;BME280;32622;48.202;11.326;2022-08-14T00:37:37;1014.31;;;18.99;23.79
46886;BME280;32622;48.202;11.326;2022-08-14T00:39:41;1014.29;;;19.15;23.90
46886;BME280;32622;48.202;11.326;2022-08-14T00:41:44;1014.45;;;18.26;24.08
46886;BME280;32622;48.202;11.326;2022-08-14T00:43:48;1014.33;;;18.61;24.26
46886;BME280;32622;48.202;11.326;2022-08-14T00:45:51;1014.54;;;17.54;25.16
46886;BME280;32622;48.202;11.326;2022-08-14T00:47:54;1014.71;;;16.72;25.70
46886;BME280;32622;48.202;11.326;2022-08-14T00:49:56;1014.53;;;17.37;25.55
46886;BME280;32622;48.202;11.326;2022-08-14T00:51:59;1014.61;;;16.92;25.85
46886;BME280;32622;48.202;11.326;2022-08-14T00:54:03;1014.59;;;16.93;25.81
46886;BME280;32622;48.202;11.326;2022-08-14T00:56:08;1014.38;;;17.72;25.27
46886;BME280;32622;48.202;11.326;2022-08-14T00:58:11;1014.54;;;16.74;25.81
46886;BME280;32622;48.202;11.326;2022-08-14T01:00:16;1014.62;;;16.41;25.99
46886;BME280;32622;48.202;11.326;2022-08-14T01:02:20;1014.64;;;16.14;25.89
46886;BME280;32622;48.202;11.326;2022-08-14T01:04:24;1014.65;;;16.26;26.38
46886;BME280;32622;48.202;11.326;2022-08-14T01:06:28;1014.47;;;16.69;25.93
46886;BME280;32622;48.202;11.326;2022-08-14T01:08:32;1014.50;;;16.62;26.09
46886;BME280;32622;48.202;11.326;2022-08-14T01:10:34;1014.55;;;16.32;26.01
46886;BME280;32622;48.202;11.326;2022-08-14T01:12:38;1014.45;;;16.56;25.63
46886;BME280;32622;48.202;11.326;2022-08-14T01:14:41;1014.17;;;17.74;24.66
46886;BME280;32622;48.202;11.326;2022-08-14T01:16:45;1014.14;;;17.89;24.24
46886;BME280;32622;48.202;11.326;2022-08-14T01:18:48;1014.10;;;18.21;24.02
46886;BME280;32622;48.202;11.326;2022-08-14T01:20:52;1014.02;;;18.64;23.46
46886;BME280;32622;48.202;11.326;2022-08-14T01:22:56;1013.97;;;18.90;23.22
46886;BME280;32622;48.202;11.326;2022-08-14T01:24:59;1014.20;;;17.65;24.31
46886;BME280;32622;48.202;11.326;2022-08-14T01:27:03;1014.11;;;17.97;24.61
46886;BME280;32622;48.202;11.326;2022-08-14T01:29:07;1014.39;;;16.53;25.47
46886;BME280;32622;48.202;11.326;2022-08-14T01:31:12;1014.28;;;16.81;25.45
46886;BME280;32622;48.202;11.326;2022-08-14T01:33:16;1014.10;;;17.45;24.88
46886;BME280;32622;48.202;11.326;2022-08-14T01:35:19;1014.01;;;17.78;24.24
46886;BME280;32622;48.202;11.326;2022-08-14T01:37:22;1013.97;;;17.85;23.87
46886;BME280;32622;48.202;11.326;2022-08-14T01:39:25;1013.93;;;18.00;23.68
46886;BME280;32622;48.202;11.326;2022-08-14T01:41:28;1013.99;;;17.58;23.96
46886;BME280;32622;48.202;11.326;2022-08-14T01:43:32;1014.02;;;17.26;24.49
46886;BME280;32622;48.202;11.326;2022-08-14T01:45:35;1013.90;;;17.66;24.02
46886;BME280;32622;48.202;11.326;2022-08-14T01:47:38;1013.89;;;17.47;24.07
46886;BME280;32622;48.202;11.326;2022-08-14T01:49:41;1013.75;;;17.99;24.33
46886;BME280;32622;48.202;11.326;2022-08-14T01:51:44;1013.84;;;17.19;24.70
46886;BME280;32622;48.202;11.326;2022-08-14T01:53:50;1013.80;;;17.05;24.78
46886;BME280;32622;48.202;11.326;2022-08-14T01:55:54;1013.73;;;16.97;25.15
46886;BME280;32622;48.202;11.326;2022-08-14T01:57:59;1013.53;;;17.77;24.51
46886;BME280;32622;48.202;11.326;2022-08-14T02:00:04;1013.53;;;17.48;24.04
46886;BME280;32622;48.202;11.326;2022-08-14T02:02:08;1013.39;;;18.09;23.77
46886;BME280;32622;48.202;11.326;2022-08-14T02:04:12;1013.24;;;18.80;23.53
46886;BME280;32622;48.202;11.326;2022-08-14T02:06:15;1013.39;;;18.11;23.68
46886;BME280;32622;48.202;11.326;2022-08-14T02:08:18;1013.45;;;17.71;23.99
46886;BME280;32622;48.202;11.326;2022-08-14T02:10:21;1013.41;;;18.00;23.86
46886;BME280;32622;48.202;11.326;2022-08-14T02:12:24;1013.37;;;18.02;23.53
46886;BME280;32622;48.202;11.326;2022-08-14T02:14:28;1013.38;;;17.79;23.77
46886;BME280;32622;48.202;11.326;2022-08-14T02:16:33;1013.33;;;17.79;23.84
46886;BME280;32622;48.202;11.326;2022-08-14T02:18:37;1013.29;;;17.91;24.39
46886;BME280;32622;48.202;11.326;2022-08-14T02:20:41;1013.37;;;17.53;24.58
46886;BME280;32622;48.202;11.326;2022-08-14T02:22:44;1013.53;;;16.62;24.81
46886;BME280;32622;48.202;11.326;2022-08-14T02:24:47;1013.47;;;16.91;24.79
46886;BME280;32622;48.202;11.326;2022-08-14T02:26:51;1013.62;;;16.29;25.23
46886;BME280;32622;48.202;11.326;2022-08-14T02:28:57;1013.49;;;16.89;24.72
46886;BME280;32622;48.202;11.326;2022-08-14T02:31:01;1013.61;;;16.39;25.04
46886;BME280;32622;48.202;11.326;2022-08-14T02:33:04;1013.53;;;16.61;25.09
46886;BME280;32622;48.202;11.326;2022-08-14T02:35:09;1013.54;;;16.61;25.14
46886;BME280;32622;48.202;11.326;2022-08-14T02:37:13;1013.47;;;16.75;24.72
46886;BME280;32622;48.202;11.326;2022-08-14T02:39:17;1013.30;;;17.42;24.11
46886;BME280;32622;48.202;11.326;2022-08-14T02:41:20;1013.60;;;16.00;25.20
46886;BME280;32622;48.202;11.326;2022-08-14T02:43:23;1013.66;;;15.96;25.35
46886;BME280;32622;48.202;11.326;2022-08-14T02:45:27;1013.84;;;14.84;26.28
46886;BME280;32622;48.202;11.326;2022-08-14T02:47:29;1013.74;;;15.09;26.03
46886;BME280;32622;48.202;11.326;2022-08-14T02:49:33;1013.69;;;15.25;26.12
46886;BME280;32622;48.202;11.326;2022-08-14T02:51:36;1013.55;;;15.84;25.90
46886;BME280;32622;48.202;11.326;2022-08-14T02:53:42;1013.36;;;16.45;24.68
46886;BME280;32622;48.202;11.326;2022-08-14T02:55:45;1013.41;;;15.99;24.75
46886;BME280;32622;48.202;11.326;2022-08-14T02:57:50;1013.30;;;16.42;24.65
46886;BME280;32622;48.202;11.326;2022-08-14T02:59:53;1013.42;;;15.95;25.22
46886;BME280;32622;48.202;11.326;2022-08-14T03:01:56;1013.57;;;15.21;25.80
46886;BME280;32622;48.202;11.326;2022-08-14T03:04:00;1013.40;;;15.74;25.19
46886;BME280;32622;48.202;11.326;2022-08-14T03:06:07;1013.46;;;15.54;25.48
46886;BME280;32622;48.202;11.326;2022-08-14T03:08:12;1013.54;;;15.03;25.94
46886;BME280;32622;48.202;11.326;2022-08-14T03:10:16;1013.57;;;14.92;26.01
46886;BME280;32622;48.202;11.326;2022-08-14T03:12:19;1013.75;;;13.98;26.24
46886;BME280;32622;48.202;11.326;2022-08-14T03:14:22;1013.39;;;15.53;25.35
46886;BME280;32622;48.202;11.326;2022-08-14T03:16:26;1013.23;;;15.87;24.72
46886;BME280;32622;48.202;11.326;2022-08-14T03:18:29;1012.95;;;16.99;24.14
46886;BME280;32622;48.202;11.326;2022-08-14T03:20:33;1013.20;;;15.96;24.44
46886;BME280;32622;48.202;11.326;2022-08-14T03:22:36;1012.87;;;17.32;23.94
46886;BME280;32622;48.202;11.326;2022-08-14T03:24:39;1013.01;;;16.64;23.83
46886;BME280;32622;48.202;11.326;2022-08-14T03:26:44;1012.94;;;16.95;23.62
46886;BME280;32622;48.202;11.326;2022-08-14T03:28:49;1012.96;;;16.76;23.69
46886;BME280;32622;48.202;11.326;2022-08-14T03:30:53;1012.92;;;16.85;23.70
46886;BME280;32622;48.202;11.326;2022-08-14T03:32:56;1012.97;;;16.74;24.02
46886;BME280;32622;48.202;11.326;2022-08-14T03:35:00;1013.05;;;16.51;23.88
46886;BME280;32622;48.202;11.326;2022-08-14T03:37:03;1013.08;;;16.37;23.82
46886;BME280;32622;48.202;11.326;2022-08-14T03:39:07;1012.90;;;17.27;23.49
46886;BME280;32622;48.202;11.326;2022-08-14T03:41:13;1013.07;;;16.45;24.28
46886;BME280;32622;48.202;11.326;2022-08-14T03:43:23;1012.97;;;16.82;23.75
46886;BME280;32622;48.202;11.326;2022-08-14T03:45:28;1013.01;;;16.70;23.91
46886;BME280;32622;48.202;11.326;2022-08-14T03:47:33;1013.07;;;16.66;23.63
46886;BME280;32622;48.202;11.326;2022-08-14T03:49:37;1013.07;;;16.65;23.74
46886;BME280;32622;48.202;11.326;2022-08-14T03:51:42;1013.06;;;16.59;23.87
46886;BME280;32622;48.202;11.326;2022-08-14T03:53:47;1012.93;;;17.00;23.50
46886;BME280;32622;48.202;11.326;2022-08-14T03:55:53;1013.03;;;16.22;24.12
46886;BME280;32622;48.202;11.326;2022-08-14T03:57:58;1013.32;;;14.86;25.33
46886;BME280;32622;48.202;11.326;2022-08-14T04:00:05;1013.21;;;15.15;25.04
46886;BME280;32622;48.202;11.326;2022-08-14T04:02:10;1013.27;;;14.74;25.29
46886;BME280;32622;48.202;11.326;2022-08-14T04:04:15;1012.93;;;16.27;24.39
46886;BME280;32622;48.202;11.326;2022-08-14T04:06:20;1013.07;;;15.65;24.65
46886;BME280;32622;48.202;11.326;2022-08-14T04:08:26;1012.97;;;16.06;24.26
46886;BME280;32622;48.202;11.326;2022-08-14T04:10:32;1012.99;;;15.91;24.12
46886;BME280;32622;48.202;11.326;2022-08-14T04:12:37;1012.98;;;15.99;24.10
46886;BME280;32622;48.202;11.326;2022-08-14T04:14:40;1012.88;;;16.28;24.15
46886;BME280;32622;48.202;11.326;2022-08-14T04:16:45;1012.98;;;15.85;24.54
46886;BME280;32622;48.202;11.326;2022-08-14T04:18:52;1013.02;;;15.55;24.61
46886;BME280;32622;48.202;11.326;2022-08-14T04:20:57;1012.86;;;16.20;24.28
46886;BME280;32622;48.202;11.326;2022-08-14T04:23:03;1012.70;;;16.89;23.67
46886;BME280;32622;48.202;11.326;2022-08-14T04:25:08;1012.79;;;16.25;24.26
46886;BME280;32622;48.202;11.326;2022-08-14T04:27:13;1012.92;;;15.62;24.50
46886;BME280;32622;48.202;11.326;2022-08-14T04:29:18;1013.03;;;15.18;24.90
46886;BME280;32622;48.202;11.326;2022-08-14T04:31:24;1012.79;;;16.21;23.98
46886;BME280;32622;48.202;11.326;2022-08-14T04:33:29;1012.94;;;15.25;24.74
46886;BME280;32622;48.202;11.326;2022-08-14T04:35:36;1012.91;;;15.38;24.49
46886;BME280;32622;48.202;11.326;2022-08-14T04:37:41;1013.14;;;14.32;25.57
46886;BME280;32622;48.202;11.326;2022-08-14T04:39:52;1012.90;;;15.21;25.50
46886;BME280;32622;48.202;11.326;2022-08-14T04:42:00;1012.88;;;15.26;25.49
46886;BME280;32622;48.202;11.326;2022-08-14T04:44:06;1012.99;;;14.64;24.92
46886;BME280;32622;48.202;11.326;2022-08-14T04:46:13;1013.18;;;13.88;25.47
46886;BME280;32622;48.202;11.326;2022-08-14T04:48:19;1012.81;;;15.40;24.73
46886;BME280;32622;48.202;11.326;2022-08-14T04:50:27;1012.68;;;15.89;24.08
46886;BME280;32622;48.202;11.326;2022-08-14T04:52:35;1012.56;;;16.74;23.49
46886;BME280;32622;48.202;11.326;2022-08-14T04:54:40;1012.71;;;15.97;23.61
46886;BME280;32622;48.202;11.326;2022-08-14T04:56:43;1012.76;;;15.51;24.26
46886;BME280;32622;48.202;11.326;2022-08-14T04:58:51;1012.61;;;16.05;23.11
46886;BME280;32622;48.202;11.326;2022-08-14T05:00:57;1012.58;;;16.19;23.05
46886;BME280;32622;48.202;11.326;2022-08-14T05:03:01;1012.72;;;15.52;23.89
46886;BME280;32622;48.202;11.326;2022-08-14T05:05:05;1012.71;;;15.52;23.56
46886;BME280;32622;48.202;11.326;2022-08-14T05:07:08;1012.70;;;15.65;23.57
46886;BME280;32622;48.202;11.326;2022-08-14T05:09:11;1012.62;;;16.14;23.06
46886;BME280;32622;48.202;11.326;2022-08-14T05:11:15;1012.40;;;17.08;22.68
46886;BME280;32622;48.202;11.326;2022-08-14T05:13:22;1012.23;;;17.68;22.16
46886;BME280;32622;48.202;11.326;2022-08-14T05:15:28;1012.21;;;17.35;21.97
46886;BME280;32622;48.202;11.326;2022-08-14T05:17:31;1012.08;;;17.95;21.35
46886;BME280;32622;48.202;11.326;2022-08-14T05:19:34;1011.88;;;18.93;21.04
46886;BME280;32622;48.202;11.326;2022-08-14T05:21:39;1011.85;;;19.14;20.49
46886;BME280;32622;48.202;11.326;2022-08-14T05:23:44;1011.72;;;19.67;20.13
46886;BME280;32622;48.202;11.326;2022-08-14T05:25:50;1011.86;;;19.07;20.35
46886;BME280;32622;48.202;11.326;2022-08-14T05:27:55;1011.69;;;19.73;19.85
46886;BME280;32622;48.202;11.326;2022-08-14T05:30:04;1011.62;;;20.04;19.56
46886;BME280;32622;48.202;11.326;2022-08-14T05:32:10;1011.65;;;19.96;19.59
46886;BME280;32622;48.202;11.326;2022-08-14T05:34:15;1011.83;;;18.91;19.68
46886;BME280;32622;48.202;11.326;2022-08-14T05:36:18;1011.83;;;18.87;19.78
46886;BME280;32622;48.202;11.326;2022-08-14T05:38:23;1011.72;;;19.28;19.54
46886;BME280;32622;48.202;11.326;2022-08-14T05:40:35;1011.63;;;19.64;19.67
46886;BME280;32622;48.202;11.326;2022-08-14T05:42:41;1011.56;;;20.41;19.39
46886;BME280;32622;48.202;11.326;2022-08-14T05:44:45;1011.67;;;20.14;19.07
46886;BME280;32622;48.202;11.326;2022-08-14T05:46:50;1011.65;;;20.48;19.15
46886;BME280;32622;48.202;11.326;2022-08-14T05:48:57;1011.89;;;19.47;19.05
46886;BME280;32622;48.202;11.326;2022-08-14T05:51:17;1011.76;;;20.11;19.15
46886;BME280;32622;48.202;11.326;2022-08-14T05:53:24;1011.88;;;19.44;19.30
46886;BME280;32622;48.202;11.326;2022-08-14T05:55:29;1011.70;;;20.46;19.36
46886;BME280;32622;48.202;11.326;2022-08-14T05:57:49;1011.58;;;21.03;18.85
46886;BME280;32622;48.202;11.326;2022-08-14T05:59:59;1011.32;;;22.23;18.14
46886;BME280;32622;48.202;11.326;2022-08-14T06:02:03;1011.31;;;22.19;17.99
46886;BME280;32622;48.202;11.326;2022-08-14T06:04:08;1011.40;;;21.80;18.17
46886;BME280;32622;48.202;11.326;2022-08-14T06:06:13;1011.40;;;21.87;17.67
46886;BME280;32622;48.202;11.326;2022-08-14T06:08:20;1011.48;;;21.63;17.67
46886;BME280;32622;48.202;11.326;2022-08-14T06:10:25;1011.20;;;22.79;17.33
46886;BME280;32622;48.202;11.326;2022-08-14T06:12:28;1011.15;;;23.17;17.18
46886;BME280;32622;48.202;11.326;2022-08-14T06:14:31;1011.15;;;23.19;16.76
46886;BME280;32622;48.202;11.326;2022-08-14T06:16:37;1011.13;;;23.33;16.65
46886;BME280;32622;48.202;11.326;2022-08-14T06:18:41;1011.11;;;23.43;16.88
46886;BME280;32622;48.202;11.326;2022-08-14T06:20:45;1010.98;;;23.74;16.33
46886;BME280;32622;48.202;11.326;2022-08-14T06:22:49;1010.89;;;24.10;16.15
46886;BME280;32622;48.202;11.326;2022-08-14T06:24:52;1010.99;;;23.76;16.01
46886;BME280;32622;48.202;11.326;2022-08-14T06:26:55;1010.87;;;24.48;16.29
46886;BME280;32622;48.202;11.326;2022-08-14T06:28:57;1010.90;;;24.46;16.07
46886;BME280;32622;48.202;11.326;2022-08-14T06:31:00;1010.85;;;24.71;16.03
46886;BME280;32622;48.202;11.326;2022-08-14T06:33:04;1011.07;;;23.77;15.88
46886;BME280;32622;48.202;11.326;2022-08-14T06:35:10;1010.78;;;24.64;16.33
46886;BME280;32622;48.202;11.326;2022-08-14T06:37:13;1010.73;;;24.81;15.92
46886;BME280;32622;48.202;11.326;2022-08-14T06:39:18;1010.63;;;25.17;15.69
46886;BME280;32622;48.202;11.326;2022-08-14T06:41:23;1010.71;;;24.83;16.02
46886;BME280;32622;48.202;11.326;2022-08-14T06:43:27;1010.67;;;24.95;15.94
46886;BME280;32622;48.202;11.326;2022-08-14T06:45:33;1011.00;;;23.29;16.07
46886;BME280;32622;48.202;11.326;2022-08-14T06:47:39;1010.79;;;24.10;16.03
46886;BME280;32622;48.202;11.326;2022-08-14T06:49:52;1010.72;;;24.64;16.35
46886;BME280;32622;48.202;11.326;2022-08-14T06:51:57;1011.22;;;22.22;17.49
46886;BME280;32622;48.202;11.326;2022-08-14T06:54:02;1010.97;;;23.53;16.39
46886;BME280;32622;48.202;11.326;2022-08-14T06:56:08;1010.82;;;23.89;16.19
46886;BME280;32622;48.202;11.326;2022-08-14T06:58:18;1010.74;;;24.01;16.17
46886;BME280;32622;48.202;11.326;2022-08-14T07:00:25;1010.55;;;24.68;16.06
46886;BME280;32622;48.202;11.326;2022-08-14T07:02:31;1010.58;;;24.43;16.09
46886;BME280;32622;48.202;11.326;2022-08-14T07:04:35;1011.01;;;22.53;16.93
46886;BME280;32622;48.202;11.326;2022-08-14T07:06:44;1010.97;;;22.62;17.35
46886;BME280;32622;48.202;11.326;2022-08-14T07:08:49;1010.83;;;23.32;17.48
46886;BME280;32622;48.202;11.326;2022-08-14T07:10:55;1010.64;;;24.13;17.35
46886;BME280;32622;48.202;11.326;2022-08-14T07:13:00;1011.76;;;18.67;20.43
46886;BME280;32622;48.202;11.326;2022-08-14T07:15:04;1010.95;;;22.49;18.25
46886;BME280;32622;48.202;11.326;2022-08-14T07:17:09;1011.68;;;18.78;21.05
46886;BME280;32622;48.202;11.326;2022-08-14T07:19:17;1011.19;;;21.01;20.44
46886;BME280;32622;48.202;11.326;2022-08-14T07:21:22;1011.16;;;20.78;20.67
46886;BME280;32622;48.202;11.326;2022-08-14T07:23:26;1011.71;;;18.07;22.68
46886;BME280;32622;48.202;11.326;2022-08-14T07:25:31;1011.00;;;21.05;20.09
46886;BME280;32622;48.202;11.326;2022-08-14T07:27:35;1010.96;;;21.15;20.13
46886;BME280;32622;48.202;11.326;2022-08-14T07:29:40;1010.98;;;20.81;20.06
46886;BME280;32622;48.202;11.326;2022-08-14T07:31:43;1010.76;;;21.29;20.39
46886;BME280;32622;48.202;11.326;2022-08-14T07:33:47;1010.52;;;22.31;19.66
46886;BME280;32622;48.202;11.326;2022-08-14T07:35:51;1010.93;;;20.51;20.23
46886;BME280;32622;48.202;11.326;2022-08-14T07:37:55;1010.34;;;23.17;19.76
46886;BME280;32622;48.202;11.326;2022-08-14T07:39:58;1010.32;;;23.09;18.99
46886;BME280;32622;48.202;11.326;2022-08-14T07:42:05;1010.54;;;21.94;19.72
46886;BME280;32622;48.202;11.326;2022-08-14T07:44:10;1010.42;;;22.33;18.96
46886;BME280;32622;48.202;11.326;2022-08-14T07:46:14;1010.46;;;22.08;19.44
46886;BME280;32622;48.202;11.326;2022-08-14T07:48:29;1010.64;;;21.05;21.24
46886;BME280;32622;48.202;11.326;2022-08-14T07:50:34;1010.49;;;21.74;19.84
46886;BME280;32622;48.202;11.326;2022-08-14T07:52:38;1010.61;;;21.25;20.78
46886;BME280;32622;48.202;11.326;2022-08-14T07:54:43;1010.86;;;19.83;21.75
46886;BME280;32622;48.202;11.326;2022-08-14T07:56:48;1010.88;;;19.74;21.03
46886;BME280;32622;48.202;11.326;2022-08-14T07:58:52;1010.64;;;21.01;20.46
46886;BME280;32622;48.202;11.326;2022-08-14T08:00:57;1010.65;;;20.93;20.23
46886;BME280;32622;48.202;11.326;2022-08-14T08:03:06;1010.84;;;19.78;21.01
46886;BME280;32622;48.202;11.326;2022-08-14T08:05:10;1010.57;;;21.21;19.79
46886;BME280;32622;48.202;11.326;2022-08-14T08:07:13;1010.69;;;20.87;20.48
46886;BME280;32622;48.202;11.326;2022-08-14T08:09:17;1010.83;;;20.47;21.18
46886;BME280;32622;48.202;11.326;2022-08-14T08:11:23;1010.70;;;21.02;21.00
46886;BME280;32622;48.202;11.326;2022-08-14T08:13:32;1011.16;;;18.89;22.84
46886;BME280;32622;48.202;11.326;2022-08-14T08:15:39;1010.80;;;20.34;21.41
46886;BME280;32622;48.202;11.326;2022-08-14T08:18:12;1010.27;;;22.82;19.98
46886;BME280;32622;48.202;11.326;2022-08-14T08:20:18;1010.76;;;20.72;21.00
46886;BME280;32622;48.202;11.326;2022-08-14T08:22:23;1010.92;;;19.72;21.72
46886;BME280;32622;48.202;11.326;2022-08-14T08:24:28;1010.92;;;19.43;21.83
46886;BME280;32622;48.202;11.326;2022-08-14T08:26:43;1010.74;;;20.61;21.79
46886;BME280;32622;48.202;11.326;2022-08-14T08:32:23;1010.38;;;22.77;21.94
46886;BME280;32622;48.202;11.326;2022-08-14T08:34:44;1011.01;;;19.59;22.26
46886;BME280;32622;48.202;11.326;2022-08-14T08:36:58;1010.79;;;20.47;21.11
46886;BME280;32622;48.202;11.326;2022-08-14T08:39:06;1011.11;;;19.37;21.57
46886;BME280;32622;48.202;11.326;2022-08-14T08:41:18;1011.06;;;19.22;22.27
46886;BME280;32622;48.202;11.326;2022-08-14T08:43:25;1011.00;;;19.40;21.83
46886;BME280;32622;48.202;11.326;2022-08-14T08:45:38;1010.54;;;21.24;20.28
46886;BME280;32622;48.202;11.326;2022-08-14T08:48:46;1010.08;;;23.51;19.44
46886;BME280;32622;48.202;11.326;2022-08-14T08:50:50;1010.95;;;19.49;21.21
46886;BME280;32622;48.202;11.326;2022-08-14T08:52:55;1010.64;;;20.85;20.04
46886;BME280;32622;48.202;11.326;2022-08-14T08:54:59;1010.65;;;20.70;19.62
46886;BME280;32622;48.202;11.326;2022-08-14T08:57:18;1010.47;;;21.48;18.90
46886;BME280;32622;48.202;11.326;2022-08-14T08:59:28;1010.35;;;21.76;18.67
46886;BME280;32622;48.202;11.326;2022-08-14T09:01:41;1010.06;;;23.17;18.45
46886;BME280;32622;48.202;11.326;2022-08-14T09:04:21;1010.41;;;21.59;19.50
46886;BME280;32622;48.202;11.326;2022-08-14T09:06:26;1010.49;;;21.43;18.90
46886;BME280;32622;48.202;11.326;2022-08-14T09:08:33;1010.51;;;21.44;18.57
46886;BME280;32622;48.202;11.326;2022-08-14T09:10:37;1010.70;;;19.98;20.14
46886;BME280;32622;48.202;11.326;2022-08-14T09:12:46;1010.71;;;20.23;20.42
46886;BME280;32622;48.202;11.326;2022-08-14T09:14:51;1010.49;;;20.53;20.02
46886;BME280;32622;48.202;11.326;2022-08-14T09:16:57;1010.56;;;20.71;20.48
46886;BME280;32622;48.202;11.326;2022-08-14T09:19:04;1010.23;;;21.77;19.87
46886;BME280;32622;48.202;11.326;2022-08-14T09:21:09;1010.06;;;22.62;17.98
46886;BME280;32622;48.202;11.326;2022-08-14T09:23:16;1010.16;;;22.24;18.90
46886;BME280;32622;48.202;11.326;2022-08-14T09:25:21;1010.19;;;22.58;17.70
46886;BME280;32622;48.202;11.326;2022-08-14T09:28:10;1009.68;;;25.00;18.59
46886;BME280;32622;48.202;11.326;2022-08-14T09:30:18;1010.20;;;22.09;18.04
46886;BME280;32622;48.202;11.326;2022-08-14T09:32:48;1009.80;;;23.76;17.02
46886;BME280;32622;48.202;11.326;2022-08-14T09:35:11;1010.27;;;21.15;18.74
46886;BME280;32622;48.202;11.326;2022-08-14T09:37:34;1009.99;;;22.38;18.05
46886;BME280;32622;48.202;11.326;2022-08-14T09:39:53;1010.13;;;21.58;18.79
46886;BME280;32622;48.202;11.326;2022-08-14T09:42:31;1009.89;;;23.09;17.52
46886;BME280;32622;48.202;11.326;2022-08-14T09:45:08;1009.91;;;23.08;17.45
46886;BME280;32622;48.202;11.326;2022-08-14T09:47:13;1010.02;;;22.65;18.12
46886;BME280;32622;48.202;11.326;2022-08-14T09:49:29;1009.72;;;23.66;17.49
46886;BME280;32622;48.202;11.326;2022-08-14T09:51:35;1010.00;;;22.35;17.55
46886;BME280;32622;48.202;11.326;2022-08-14T09:53:43;1010.31;;;21.14;19.05
46886;BME280;32622;48.202;11.326;2022-08-14T09:55:57;1010.38;;;20.45;20.04
46886;BME280;32622;48.202;11.326;2022-08-14T09:58:11;1010.49;;;19.92;20.49
46886;BME280;32622;48.202;11.326;2022-08-14T10:00:15;1010.11;;;21.54;19.96
46886;BME280;32622;48.202;11.326;2022-08-14T10:02:21;1009.79;;;22.85;18.04
46886;BME280;32622;48.202;11.326;2022-08-14T10:04:25;1010.11;;;21.04;19.11
46886;BME280;32622;48.202;11.326;2022-08-14T10:06:42;1009.99;;;21.32;18.56
46886;BME280;32622;48.202;11.326;2022-08-14T10:08:47;1010.06;;;21.35;18.97
46886;BME280;32622;48.202;11.326;2022-08-14T10:10:54;1009.82;;;22.09;18.32
46886;BME280;32622;48.202;11.326;2022-08-14T10:12:57;1009.57;;;23.51;17.42
46886;BME280;32622;48.202;11.326;2022-08-14T10:15:00;1009.46;;;23.87;17.13
46886;BME280;32622;48.202;11.326;2022-08-14T10:17:04;1009.30;;;24.48;16.04
46886;BME280;32622;48.202;11.326;2022-08-14T10:19:09;1009.27;;;24.25;15.77
46886;BME280;32622;48.202;11.326;2022-08-14T10:21:16;1008.93;;;25.76;14.81
46886;BME280;32622;48.202;11.326;2022-08-14T10:23:20;1009.29;;;24.07;16.27
46886;BME280;32622;48.202;11.326;2022-08-14T10:25:24;1009.08;;;24.85;15.74
46886;BME280;32622;48.202;11.326;2022-08-14T10:27:30;1008.91;;;25.54;15.27
46886;BME280;32622;48.202;11.326;2022-08-14T10:29:34;1008.72;;;26.35;15.05
46886;BME280;32622;48.202;11.326;2022-08-14T10:31:37;1008.75;;;25.99;14.15
46886;BME280;32622;48.202;11.326;2022-08-14T10:33:39;1008.71;;;26.32;14.46
46886;BME280;32622;48.202;11.326;2022-08-14T10:35:43;1009.11;;;24.87;14.71
46886;BME280;32622;48.202;11.326;2022-08-14T10:37:48;1009.24;;;24.06;15.86
46886;BME280;32622;48.202;11.326;2022-08-14T10:39:58;1009.10;;;24.27;15.51
46886;BME280;32622;48.202;11.326;2022-08-14T10:42:03;1009.23;;;23.56;16.61
46886;BME280;32622;48.202;11.326;2022-08-14T10:44:09;1009.04;;;24.19;15.39
46886;BME280;32622;48.202;11.326;2022-08-14T10:46:13;1009.36;;;22.84;16.95
46886;BME280;32622;48.202;11.326;2022-08-14T10:48:18;1009.24;;;23.55;17.67
46886;BME280;32622;48.202;11.326;2022-08-14T10:50:30;1009.01;;;24.15;15.63
46886;BME280;32622;48.202;11.326;2022-08-14T10:52:38;1008.64;;;25.40;14.42
46886;BME280;32622;48.202;11.326;2022-08-14T10:54:44;1008.79;;;24.72;14.35
46886;BME280;32622;48.202;11.326;2022-08-14T10:56:47;1008.48;;;25.84;14.31
46886;BME280;32622;48.202;11.326;2022-08-14T10:58:59;1008.52;;;25.51;13.91
46886;BME280;32622;48.202;11.326;2022-08-14T11:01:07;1008.57;;;25.39;14.16
46886;BME280;32622;48.202;11.326;2022-08-14T11:03:10;1008.60;;;25.43;14.11
46886;BME280;32622;48.202;11.326;2022-08-14T11:05:15;1008.43;;;25.94;13.74
46886;BME280;32622;48.202;11.326;2022-08-14T11:07:18;1008.49;;;25.56;13.83
46886;BME280;32622;48.202;11.326;2022-08-14T11:09:21;1008.30;;;26.10;13.15
46886;BME280;32622;48.202;11.326;2022-08-14T11:11:24;1008.49;;;24.91;12.71